createdAt,value
2022-12-26T00:02:05.289Z,8.10
2022-12-26T00:07:09.931Z,8.05
2022-12-26T00:12:13.181Z,7.90
2022-12-26T00:17:16.499Z,9.40
2022-12-26T00:22:21.189Z,8.80
2022-12-26T00:27:24.461Z,7.93
2022-12-26T00:32:27.757Z,7.40
2022-12-26T00:37:32.390Z,7.70
2022-12-26T00:42:35.631Z,8.05
2022-12-26T00:47:39.057Z,8.40
2022-12-26T00:52:44.006Z,9.10
2022-12-26T00:57:47.309Z,9.07
2022-12-26T01:02:50.745Z,8.13
2022-12-26T01:08:21.146Z,8.90
2022-12-26T01:13:19.306Z,7.57
2022-12-26T01:18:23.293Z,7.63
2022-12-26T01:23:28.045Z,7.63
2022-12-26T01:28:31.363Z,6.90
2022-12-26T01:33:34.950Z,7.03
2022-12-26T01:38:39.777Z,7.10
2022-12-26T01:43:54.538Z,6.50
2022-12-26T01:49:00.797Z,6.55
2022-12-26T01:54:40.391Z,6.30
2022-12-26T01:59:34.644Z,6.30
2022-12-26T02:04:59.478Z,6.85
2022-12-26T02:10:04.991Z,6.95
2022-12-26T02:15:11.423Z,6.72
2022-12-26T02:20:20.271Z,6.90
2022-12-26T02:25:48.135Z,6.35
2022-12-26T02:30:57.223Z,6.50
2022-12-26T02:36:27.834Z,7.30
2022-12-26T02:41:41.918Z,6.75
2022-12-26T02:47:04.628Z,7.45
2022-12-26T02:52:36.741Z,7.27
2022-12-26T02:58:05.872Z,7.15
2022-12-26T03:03:32.182Z,6.95
2022-12-26T03:08:56.098Z,8.30
2022-12-26T03:14:08.731Z,7.15
2022-12-26T03:19:16.371Z,7.23
2022-12-26T03:24:19.887Z,7.50
2022-12-26T03:29:42.800Z,7.75
2022-12-26T03:34:47.434Z,7.07
2022-12-26T03:40:17.528Z,8.23
2022-12-26T03:45:45.683Z,8.50
2022-12-26T03:51:11.687Z,9.25
2022-12-26T03:56:38.696Z,9.20
2022-12-26T04:02:02.460Z,9.07
2022-12-26T04:07:30.525Z,7.97
2022-12-26T04:12:52.672Z,8.73
2022-12-26T04:18:18.927Z,8.32
2022-12-26T04:23:50.096Z,9.20
2022-12-26T04:29:10.998Z,8.00
2022-12-26T04:34:39.012Z,7.30
2022-12-26T04:40:04.658Z,8.35
2022-12-26T04:45:10.023Z,9.37
2022-12-26T04:50:13.405Z,9.00
2022-12-26T04:55:18.574Z,10.60
2022-12-26T05:00:22.012Z,9.43
2022-12-26T05:05:41.962Z,8.93
2022-12-26T05:10:46.804Z,9.32
2022-12-26T05:16:07.366Z,9.70
2022-12-26T05:21:31.541Z,10.10
2022-12-26T05:26:53.796Z,9.70
2022-12-26T05:31:57.128Z,11.02
2022-12-26T05:37:00.930Z,9.60
2022-12-26T05:42:05.736Z,9.18
2022-12-26T05:47:08.929Z,9.70
2022-12-26T05:52:12.177Z,8.93
2022-12-26T05:57:16.808Z,8.88
2022-12-26T06:02:20.211Z,9.73
2022-12-26T06:07:23.697Z,9.53
2022-12-26T06:12:28.314Z,10.13
2022-12-26T06:17:31.652Z,11.00
2022-12-26T06:22:34.881Z,10.75
2022-12-26T06:27:39.516Z,10.52
2022-12-26T06:32:42.795Z,11.20
2022-12-26T06:37:46.037Z,10.60
2022-12-26T06:42:50.923Z,10.80
2022-12-26T06:47:54.593Z,10.40
2022-12-26T06:52:57.890Z,10.13
2022-12-26T06:58:02.592Z,11.63
2022-12-26T07:03:05.956Z,10.52
2022-12-26T07:08:09.228Z,11.20
2022-12-26T07:13:13.829Z,9.40
2022-12-26T07:18:17.093Z,12.30
2022-12-26T07:23:20.342Z,9.63
2022-12-26T07:28:24.956Z,10.07
2022-12-26T07:33:29.817Z,10.88
2022-12-26T07:38:34.560Z,12.70
2022-12-26T07:43:39.199Z,12.63
2022-12-26T07:48:42.484Z,12.23
2022-12-26T07:53:45.862Z,12.93
2022-12-26T07:58:51.622Z,11.17
2022-12-26T08:03:54.921Z,11.90
2022-12-26T08:08:58.184Z,10.63
2022-12-26T08:14:03.111Z,10.77
2022-12-26T08:19:06.557Z,8.45
2022-12-26T08:24:09.901Z,8.73
2022-12-26T08:29:14.598Z,9.00
2022-12-26T08:34:17.858Z,8.70
2022-12-26T08:39:21.120Z,7.85
2022-12-26T08:44:27.899Z,12.18
2022-12-26T08:49:31.884Z,7.72
2022-12-26T08:54:35.310Z,8.00
2022-12-26T08:59:39.961Z,7.73
2022-12-26T09:04:43.219Z,7.53
2022-12-26T09:09:47.477Z,7.15
2022-12-26T09:14:52.209Z,9.23
2022-12-26T09:19:55.476Z,7.90
2022-12-26T09:24:58.814Z,6.93
2022-12-26T09:30:03.579Z,5.60
2022-12-26T09:35:08.316Z,5.50
2022-12-26T09:40:23.135Z,6.27
2022-12-26T09:45:37.158Z,7.22
2022-12-26T09:50:43.369Z,6.40
2022-12-26T09:55:51.910Z,6.40
2022-12-26T10:01:01.383Z,7.22
2022-12-26T10:06:15.751Z,7.60
2022-12-26T10:11:26.491Z,7.80
2022-12-26T10:16:44.620Z,6.10
2022-12-26T10:21:55.226Z,7.13
2022-12-26T10:27:04.106Z,8.23
2022-12-26T10:32:14.450Z,6.20
2022-12-26T10:37:24.397Z,5.00
2022-12-26T10:42:32.000Z,4.60
2022-12-26T10:47:40.233Z,5.70
2022-12-26T10:52:43.606Z,6.63
2022-12-26T10:57:51.316Z,6.10
2022-12-26T11:03:14.866Z,7.32
2022-12-26T11:08:21.027Z,8.85
2022-12-26T11:13:25.052Z,13.95
2022-12-26T11:18:35.820Z,10.63
2022-12-26T11:23:39.263Z,7.10
2022-12-26T11:28:42.634Z,7.67
2022-12-26T11:33:48.341Z,7.30
2022-12-26T11:38:56.887Z,7.65
2022-12-26T11:44:05.662Z,9.88
2022-12-26T11:49:25.995Z,9.57
2022-12-26T11:54:37.481Z,11.60
2022-12-26T11:59:41.390Z,11.43
2022-12-26T12:04:47.277Z,11.07
2022-12-26T12:09:56.103Z,10.43
2022-12-26T12:15:10.416Z,6.25
2022-12-26T12:20:30.203Z,5.50
2022-12-26T12:25:53.833Z,6.83
2022-12-26T12:31:06.079Z,7.43
2022-12-26T12:36:13.997Z,5.65
2022-12-26T12:41:36.397Z,7.28
2022-12-26T12:46:51.177Z,7.97
2022-12-26T12:52:07.003Z,7.38
2022-12-26T12:57:18.082Z,6.60
2022-12-26T13:02:30.396Z,7.30
2022-12-26T13:07:46.950Z,6.53
2022-12-26T13:12:51.843Z,7.00
2022-12-26T13:18:01.826Z,7.00
2022-12-26T13:23:28.685Z,9.05
2022-12-26T13:28:37.535Z,9.82
2022-12-26T13:33:43.645Z,9.00
2022-12-26T13:39:23.752Z,6.60
2022-12-26T13:44:28.959Z,7.57
2022-12-26T13:49:36.477Z,10.60
2022-12-26T13:55:18.912Z,7.93
2022-12-26T14:00:41.587Z,9.15
2022-12-26T14:06:10.478Z,7.95
2022-12-26T14:11:29.647Z,6.47
2022-12-26T14:16:44.551Z,5.20
2022-12-26T14:21:55.701Z,5.80
2022-12-26T14:27:19.426Z,5.97
2022-12-26T14:32:35.282Z,5.50
2022-12-26T14:37:49.526Z,8.32
2022-12-26T14:43:31.206Z,5.22
2022-12-26T14:48:50.462Z,7.13
2022-12-26T14:54:14.362Z,4.65
2022-12-26T14:59:28.445Z,8.97
2022-12-26T15:04:52.654Z,5.80
2022-12-26T15:10:19.033Z,3.05
2022-12-26T15:15:41.708Z,3.17
2022-12-26T15:21:19.458Z,3.53
2022-12-26T15:27:02.495Z,5.10
2022-12-26T15:32:15.906Z,4.00
2022-12-26T15:37:46.609Z,4.18
2022-12-26T15:42:59.996Z,3.37
2022-12-26T15:48:11.679Z,2.97
2022-12-26T15:53:26.519Z,3.05
2022-12-26T15:58:47.793Z,3.25
2022-12-26T16:03:56.279Z,3.50
2022-12-26T16:09:21.008Z,2.97
2022-12-26T16:14:30.290Z,3.23
2022-12-26T16:19:33.512Z,3.50
2022-12-26T16:24:40.734Z,2.70
2022-12-26T16:29:47.959Z,3.07
2022-12-26T16:34:51.472Z,3.20
2022-12-26T16:40:18.104Z,2.00
2022-12-26T16:45:23.284Z,3.97
2022-12-26T16:50:28.734Z,3.03
2022-12-26T16:55:39.883Z,3.35
2022-12-26T17:00:52.627Z,3.90
2022-12-26T17:05:57.318Z,2.92
2022-12-26T17:11:02.061Z,3.40
2022-12-26T17:16:10.701Z,5.60
2022-12-26T17:21:32.801Z,2.53
2022-12-26T17:26:39.586Z,3.08
2022-12-26T17:31:45.626Z,3.60
2022-12-26T17:42:14.763Z,2.85
2022-12-26T17:47:22.491Z,3.45
2022-12-26T17:52:29.162Z,2.75
2022-12-26T17:57:33.870Z,2.30
2022-12-26T18:02:37.217Z,2.50
2022-12-26T18:07:41.115Z,3.20
2022-12-26T18:12:45.771Z,1.83
2022-12-26T18:17:50.991Z,1.80
2022-12-26T18:22:54.492Z,1.97
2022-12-26T18:28:00.542Z,2.15
2022-12-26T18:33:03.878Z,1.93
2022-12-26T18:38:07.616Z,2.92
2022-12-26T18:43:12.345Z,2.30
2022-12-26T18:48:17.278Z,2.35
2022-12-26T18:53:20.515Z,1.27
2022-12-26T18:58:25.154Z,1.20
2022-12-26T19:03:28.363Z,1.95
2022-12-26T19:08:32.365Z,1.00
2022-12-26T19:13:37.235Z,1.00
2022-12-26T19:18:40.535Z,1.20
2022-12-26T19:23:47.481Z,0.85
2022-12-26T19:28:54.404Z,1.02
2022-12-26T19:33:58.803Z,1.00
2022-12-26T19:39:02.041Z,0.80
2022-12-26T19:44:06.867Z,0.93
2022-12-26T19:49:10.107Z,0.70
2022-12-26T19:54:13.353Z,0.60
2022-12-26T19:59:18.016Z,1.00
2022-12-26T20:04:21.284Z,0.50
2022-12-26T20:09:24.548Z,1.33
2022-12-26T20:14:29.481Z,0.60
2022-12-26T20:19:32.743Z,1.00
2022-12-26T20:24:36.297Z,0.50
2022-12-26T20:29:41.094Z,0.55
2022-12-26T20:34:44.347Z,0.80
2022-12-26T20:39:47.594Z,0.50
2022-12-26T20:44:52.268Z,1.17
2022-12-26T20:49:55.570Z,1.00
2022-12-26T20:54:58.859Z,0.80
2022-12-26T21:00:03.748Z,1.13
2022-12-26T21:05:07.668Z,1.17
2022-12-26T21:10:11.951Z,1.20
2022-12-26T21:15:16.694Z,1.20
2022-12-26T21:20:19.961Z,1.20
2022-12-26T21:25:23.356Z,1.05
2022-12-26T21:30:28.044Z,0.60
2022-12-26T21:35:31.526Z,1.30
2022-12-26T21:40:34.779Z,0.75
2022-12-26T21:45:41.669Z,0.80
2022-12-26T21:50:46.028Z,1.10
2022-12-26T21:55:49.510Z,0.60
2022-12-26T22:00:54.175Z,0.50
2022-12-26T22:05:57.633Z,0.50
2022-12-26T22:11:23.474Z,0.40
2022-12-26T22:16:29.912Z,0.40
2022-12-26T22:21:33.385Z,0.40
2022-12-26T22:26:36.605Z,0.30
2022-12-26T22:31:41.260Z,0.70
2022-12-26T22:36:44.667Z,0.47
2022-12-26T22:41:48.167Z,0.60
2022-12-26T22:46:52.901Z,0.40
2022-12-26T22:51:56.284Z,0.30
2022-12-26T22:56:59.552Z,0.60
2022-12-26T23:02:04.393Z,0.50
2022-12-26T23:07:08.181Z,0.50
2022-12-26T23:12:35.501Z,0.40
2022-12-26T23:18:01.922Z,0.45
2022-12-26T23:23:05.666Z,0.50
2022-12-26T23:28:26.103Z,0.47
2022-12-26T23:33:31.014Z,0.50
2022-12-26T23:38:34.271Z,0.68
2022-12-26T23:43:37.552Z,0.73
2022-12-26T23:48:42.219Z,0.57
2022-12-26T23:53:45.486Z,0.40
2022-12-26T23:58:48.799Z,0.43
